Time;durP1;ratioP1;P1;durP2;ratioP2;P2;SDS_P1;SDS_P2;PMS_P1;PMS_P2;Temp;Humidity;BMP_temperature;BMP_pressure;BME280_temperature;BME280_humidity;BME280_pressure;Samples;Min_cycle;Max_cycle;Signal;HPM_P1;HPM_P2
2021/05/31 00:01:52;;;;;;;1.77;1.52;;;12.80;93.90;;;;;;5019109;28;20113;-70
2021/05/31 00:04:18;;;;;;;2.92;1.90;;;12.80;93.60;;;;;;5018932;28;20065;-70
2021/05/31 00:07:01;;;;;;;1.92;1.63;;;12.80;94.20;;;;;;5019051;28;20041;-70
2021/05/31 00:09:27;;;;;;;2.30;1.67;;;12.80;93.90;;;;;;5019290;28;20104;-70
2021/05/31 00:11:52;;;;;;;2.83;1.67;;;12.80;93.50;;;;;;5019123;28;20049;-70
2021/05/31 00:14:18;;;;;;;3.35;1.30;;;12.80;93.90;;;;;;5018877;28;20469;-70
2021/05/31 00:16:44;;;;;;;2.90;1.60;;;12.80;94.70;;;;;;5019180;28;20037;-70
2021/05/31 00:19:12;;;;;;;1.80;1.60;;;12.70;93.90;;;;;;5018713;28;20049;-70
2021/05/31 00:21:38;;;;;;;1.70;1.40;;;12.70;93.90;;;;;;5019043;28;20030;-70
2021/05/31 00:24:04;;;;;;;2.28;1.70;;;12.70;93.30;;;;;;5018776;28;20033;-70
2021/05/31 00:26:30;;;;;;;3.97;1.60;;;12.60;93.60;;;;;;5018556;28;20446;-70
2021/05/31 00:28:55;;;;;;;2.30;1.65;;;12.50;94.70;;;;;;5018602;28;20026;-70
2021/05/31 00:31:21;;;;;;;7.47;1.73;;;12.40;95.20;;;;;;5018861;28;20022;-70
2021/05/31 00:33:47;;;;;;;2.95;1.65;;;12.20;95.30;;;;;;5018542;28;20026;-70
2021/05/31 00:36:12;;;;;;;4.20;1.65;;;12.10;95.90;;;;;;5018712;28;20022;-70
2021/05/31 00:38:40;;;;;;;2.00;1.70;;;12.00;95.00;;;;;;5018431;28;20038;-70
2021/05/31 00:41:07;;;;;;;2.50;1.60;;;11.90;94.30;;;;;;5018391;28;20168;-70
2021/05/31 00:43:34;;;;;;;6.20;1.85;;;11.90;93.50;;;;;;5018410;28;20105;-70
2021/05/31 00:46:07;;;;;;;2.35;1.65;;;11.90;92.70;;;;;;5018570;28;20033;-70
2021/05/31 00:48:34;;;;;;;2.25;1.80;;;11.90;91.70;;;;;;5018305;28;20034;-70
2021/05/31 00:51:03;;;;;;;3.55;1.92;;;11.80;90.20;;;;;;5018488;28;20022;-70
2021/05/31 00:53:29;;;;;;;3.08;1.70;;;11.70;91.00;;;;;;5018203;28;20036;-70
2021/05/31 00:55:55;;;;;;;2.83;1.80;;;11.60;91.00;;;;;;5018384;28;20365;-70
2021/05/31 00:58:27;;;;;;;2.47;1.77;;;11.50;90.10;;;;;;5018374;28;20038;-70
2021/05/31 01:00:54;;;;;;;2.72;1.92;;;11.40;89.10;;;;;;5018046;28;20106;-70
2021/05/31 01:03:20;;;;;;;4.22;2.22;;;11.40;89.20;;;;;;5018003;28;20034;-70
2021/05/31 01:05:47;;;;;;;4.75;1.85;;;11.40;87.60;;;;;;5017790;28;20036;-70
2021/05/31 01:08:20;;;;;;;3.40;2.28;;;11.40;89.30;;;;;;5018228;28;20365;-70
2021/05/31 01:10:57;;;;;;;4.88;1.88;;;11.40;89.20;;;;;;5018177;28;20365;-70
2021/05/31 01:13:52;;;;;;;2.22;1.60;;;11.40;89.40;;;;;;5017866;28;20041;-70
2021/05/31 01:16:18;;;;;;;2.75;1.60;;;11.40;88.60;;;;;;5014607;28;20050;-70
2021/05/31 01:18:46;;;;;;;1.98;1.52;;;11.40;87.40;;;;;;5017757;28;20045;-70
2021/05/31 01:21:39;;;;;;;3.67;1.80;;;11.40;87.20;;;;;;5017702;28;20030;-70
2021/05/31 01:24:22;;;;;;;4.05;1.65;;;11.40;86.60;;;;;;5017454;28;20087;-70
2021/05/31 01:26:59;;;;;;;3.78;1.75;;;11.40;85.40;;;;;;5017621;28;20033;-70
2021/05/31 01:29:26;;;;;;;2.65;1.60;;;11.40;87.30;;;;;;5017857;28;20026;-70
2021/05/31 01:32:02;;;;;;;2.70;2.08;;;11.40;84.90;;;;;;5017473;28;20476;-70
2021/05/31 01:34:33;;;;;;;6.20;1.98;;;11.40;86.80;;;;;;5017388;28;20068;-70
2021/05/31 01:37:02;;;;;;;2.22;1.50;;;11.40;86.40;;;;;;5017435;28;20147;-70
2021/05/31 01:39:31;;;;;;;2.90;1.80;;;11.50;87.60;;;;;;5017663;28;20041;-70
2021/05/31 01:41:58;;;;;;;3.83;1.85;;;11.60;87.10;;;;;;5017260;28;20022;-70
2021/05/31 01:44:23;;;;;;;2.97;1.70;;;11.70;86.30;;;;;;5017465;28;20041;-70
2021/05/31 01:46:50;;;;;;;3.30;1.75;;;11.70;87.00;;;;;;5017548;28;20418;-70
2021/05/31 01:49:16;;;;;;;2.70;1.65;;;11.80;87.60;;;;;;5017476;28;20303;-70
2021/05/31 01:51:43;;;;;;;2.72;1.80;;;11.80;87.40;;;;;;5017501;28;20161;-70
2021/05/31 01:54:11;;;;;;;2.53;1.63;;;11.80;86.20;;;;;;5017462;28;20030;-70
2021/05/31 01:56:38;;;;;;;3.65;1.60;;;11.70;83.20;;;;;;5017350;28;20307;-70
2021/05/31 01:59:05;;;;;;;1.98;1.77;;;11.70;86.30;;;;;;5017089;28;20476;-70
2021/05/31 02:01:33;;;;;;;2.13;1.50;;;11.60;83.10;;;;;;5017012;28;20033;-70
2021/05/31 02:03:59;;;;;;;4.25;1.95;;;11.60;83.90;;;;;;5017357;28;20100;-70
2021/05/31 02:06:25;;;;;;;3.17;2.00;;;11.60;85.30;;;;;;5016806;28;20231;-70
2021/05/31 02:08:52;;;;;;;4.55;1.63;;;11.60;83.40;;;;;;5017003;28;20040;-70
2021/05/31 02:12:08;;;;;;;2.40;1.90;;;11.50;86.60;;;;;;5016968;28;20022;-70
2021/05/31 02:14:59;;;;;;;1.98;1.63;;;11.50;85.00;;;;;;4995409;28;20058;-70
2021/05/31 02:17:30;;;;;;;3.40;1.70;;;11.60;87.10;;;;;;5017204;28;20029;-70
2021/05/31 02:20:02;;;;;;;2.10;1.70;;;11.70;84.30;;;;;;5016710;28;20060;-70
2021/05/31 02:22:30;;;;;;;2.75;1.92;;;11.70;85.80;;;;;;5016783;28;20025;-70
2021/05/31 02:24:57;;;;;;;2.75;1.80;;;11.80;84.80;;;;;;5016621;28;20030;-70
2021/05/31 02:27:23;;;;;;;3.67;1.52;;;11.90;83.60;;;;;;5016750;28;20113;-70
2021/05/31 02:29:49;;;;;;;2.85;1.77;;;12.00;85.80;;;;;;5017029;28;20314;-70
2021/05/31 02:32:15;;;;;;;2.70;1.70;;;12.10;84.40;;;;;;5017054;28;20021;-70
2021/05/31 02:34:41;;;;;;;1.98;1.60;;;12.20;84.10;;;;;;5016719;28;20149;-70
2021/05/31 02:37:11;;;;;;;2.75;1.55;;;12.20;82.30;;;;;;5020765;28;20052;-70
2021/05/31 02:39:36;;;;;;;2.25;1.85;;;12.20;81.10;;;;;;5020662;28;20057;-70
2021/05/31 02:42:03;;;;;;;4.50;1.90;;;12.30;85.80;;;;;;5020933;28;20052;-70
2021/05/31 02:44:29;;;;;;;2.17;1.55;;;12.30;87.90;;;;;;5020980;28;20025;-70
2021/05/31 02:46:54;;;;;;;3.15;1.70;;;12.30;85.20;;;;;;5020573;28;20030;-70
2021/05/31 02:49:20;;;;;;;2.45;1.80;;;12.30;86.20;;;;;;5020749;28;20040;-71
2021/05/31 02:51:46;;;;;;;3.65;1.90;;;12.30;85.90;;;;;;5020418;28;20026;-71
2021/05/31 02:54:13;;;;;;;3.63;1.65;;;12.30;86.90;;;;;;5020733;28;20125;-70
2021/05/31 02:56:39;;;;;;;5.55;1.73;;;12.20;87.80;;;;;;5020613;28;20071;-70
2021/05/31 02:59:05;;;;;;;3.22;1.77;;;12.10;88.00;;;;;;5020649;28;20358;-70
2021/05/31 03:01:30;;;;;;;2.13;1.90;;;12.00;88.50;;;;;;5020262;28;20018;-70
2021/05/31 03:03:56;;;;;;;2.85;1.67;;;12.00;88.40;;;;;;5020290;28;20026;-70
2021/05/31 03:06:22;;;;;;;2.42;2.13;;;12.00;88.40;;;;;;5020364;28;20034;-70
2021/05/31 03:08:48;;;;;;;5.55;1.85;;;11.90;88.80;;;;;;5020158;28;20438;-70
2021/05/31 03:11:13;;;;;;;2.50;1.92;;;11.90;89.60;;;;;;5020364;28;20022;-70
2021/05/31 03:13:40;;;;;;;2.95;1.90;;;11.90;90.10;;;;;;5020407;28;20326;-70
2021/05/31 03:16:06;;;;;;;2.90;1.67;;;12.00;89.00;;;;;;5020411;28;20040;-70
2021/05/31 03:18:32;;;;;;;3.38;1.52;;;11.90;86.00;;;;;;5019786;28;20133;-70
2021/05/31 03:20:58;;;;;;;2.88;1.90;;;11.90;85.90;;;;;;5019961;28;20060;-70
2021/05/31 03:23:23;;;;;;;2.58;1.63;;;12.10;84.20;;;;;;5019916;28;20037;-70
2021/05/31 03:25:49;;;;;;;2.53;1.60;;;12.20;87.80;;;;;;5019737;28;20053;-70
2021/05/31 03:28:15;;;;;;;2.38;1.80;;;12.30;87.50;;;;;;5019790;28;20026;-70
2021/05/31 03:30:40;;;;;;;4.07;1.90;;;12.30;88.10;;;;;;5020053;28;20029;-70
2021/05/31 03:33:06;;;;;;;4.20;1.58;;;12.30;88.70;;;;;;5020039;28;20104;-70
2021/05/31 03:35:32;;;;;;;2.13;1.75;;;12.30;84.00;;;;;;5019628;28;20026;-70
2021/05/31 03:37:58;;;;;;;3.55;1.92;;;12.30;84.70;;;;;;5019590;28;20116;-70
2021/05/31 03:40:24;;;;;;;2.22;1.60;;;12.30;84.30;;;;;;5019823;28;20034;-70
2021/05/31 03:42:54;;;;;;;2.13;1.67;;;12.20;83.40;;;;;;5019550;28;20406;-70
2021/05/31 03:45:21;;;;;;;2.28;1.55;;;12.30;86.40;;;;;;5019376;28;20338;-70
2021/05/31 03:47:47;;;;;;;3.58;1.88;;;12.30;86.00;;;;;;5018913;28;20112;-70
2021/05/31 03:50:12;;;;;;;5.30;1.75;;;12.30;87.30;;;;;;5019679;28;20061;-70
2021/05/31 03:52:39;;;;;;;2.30;1.80;;;12.30;86.20;;;;;;5019663;28;20076;-70
2021/05/31 03:55:06;;;;;;;3.35;1.98;;;12.20;87.70;;;;;;5019228;28;20030;-71
2021/05/31 03:57:33;;;;;;;2.67;1.90;;;12.10;87.80;;;;;;5019220;28;20038;-70
2021/05/31 03:59:59;;;;;;;2.25;1.48;;;12.00;87.10;;;;;;5019182;28;20029;-70
2021/05/31 04:02:25;;;;;;;5.82;1.73;;;11.90;87.20;;;;;;5019441;28;20113;-70
2021/05/31 04:04:53;;;;;;;2.20;1.75;;;11.80;87.70;;;;;;5019343;28;20036;-70
2021/05/31 04:12:50;;;;;;;2.67;1.75;;;11.80;89.40;;;;;;5019258;28;20061;-70
2021/05/31 04:15:16;;;;;;;2.53;1.85;;;11.90;89.60;;;;;;5019131;28;20410;-70
2021/05/31 04:17:42;;;;;;;4.07;1.80;;;11.80;89.30;;;;;;5019128;28;20108;-70
2021/05/31 04:20:09;;;;;;;2.03;1.75;;;11.80;89.60;;;;;;5018625;28;20100;-70
2021/05/31 04:22:34;;;;;;;2.33;1.70;;;11.90;90.00;;;;;;5018731;28;20029;-70
2021/05/31 04:25:00;;;;;;;4.72;1.70;;;12.00;89.70;;;;;;5018883;28;20108;-70
2021/05/31 04:27:26;;;;;;;2.85;1.60;;;12.10;87.30;;;;;;5019002;28;20030;-70
2021/05/31 04:29:52;;;;;;;2.55;1.83;;;12.20;85.90;;;;;;5018920;28;20065;-70
2021/05/31 04:32:18;;;;;;;3.88;1.80;;;12.30;88.00;;;;;;5018607;28;20034;-70
2021/05/31 04:34:44;;;;;;;2.08;1.67;;;12.40;87.80;;;;;;5018867;28;20318;-70
2021/05/31 04:37:10;;;;;;;2.00;1.70;;;12.50;85.00;;;;;;5018829;28;20056;-70
2021/05/31 04:39:37;;;;;;;2.92;1.95;;;12.50;84.70;;;;;;5018473;28;20413;-70
2021/05/31 04:42:06;;;;;;;4.97;1.90;;;12.60;83.30;;;;;;5018413;28;20029;-70
2021/05/31 04:44:32;;;;;;;2.22;1.70;;;12.60;84.60;;;;;;5018391;28;20034;-70
2021/05/31 04:46:58;;;;;;;5.72;2.08;;;12.70;86.80;;;;;;5018620;28;20030;-70
2021/05/31 04:49:24;;;;;;;4.78;1.73;;;12.80;86.90;;;;;;5018561;28;20418;-70
2021/05/31 04:51:51;;;;;;;3.33;2.03;;;12.80;87.10;;;;;;5018523;28;20033;-70
2021/05/31 04:54:16;;;;;;;3.00;2.17;;;12.80;85.60;;;;;;5018557;28;20080;-70
2021/05/31 04:56:42;;;;;;;3.67;2.00;;;12.70;85.80;;;;;;5018475;28;20398;-70
2021/05/31 04:59:08;;;;;;;3.38;1.90;;;12.60;86.30;;;;;;5017318;28;20385;-70
2021/05/31 05:01:34;;;;;;;2.78;2.03;;;12.60;86.80;;;;;;5018327;28;20029;-70
2021/05/31 05:04:01;;;;;;;2.78;2.10;;;12.70;88.30;;;;;;5018348;28;20022;-70
2021/05/31 05:06:26;;;;;;;4.80;2.13;;;12.80;87.60;;;;;;5017767;28;20030;-70
2021/05/31 05:08:54;;;;;;;2.50;1.77;;;12.80;86.90;;;;;;5018230;28;20022;-70
2021/05/31 05:11:20;;;;;;;2.67;1.60;;;12.90;85.70;;;;;;5018202;28;20370;-70
2021/05/31 05:13:48;;;;;;;2.08;1.70;;;12.90;86.60;;;;;;5017861;28;20029;-70
2021/05/31 05:16:14;;;;;;;2.17;1.88;;;13.10;87.20;;;;;;5017698;28;20037;-70
2021/05/31 05:18:46;;;;;;;1.67;1.50;;;13.30;87.10;;;;;;5017841;28;20053;-71
2021/05/31 05:21:13;;;;;;;2.38;1.55;;;13.50;85.30;;;;;;5017697;28;20040;-70
2021/05/31 05:23:39;;;;;;;4.10;2.08;;;13.70;84.10;;;;;;5018003;28;20026;-70
2021/05/31 05:26:05;;;;;;;2.40;1.77;;;13.80;82.10;;;;;;5017779;28;20186;-70
2021/05/31 05:28:32;;;;;;;3.78;2.00;;;14.00;74.50;;;;;;5017892;28;20025;-70
2021/05/31 05:31:02;;;;;;;2.00;1.80;;;14.20;73.70;;;;;;5017488;28;20029;-71
2021/05/31 05:33:28;;;;;;;1.88;1.50;;;14.50;75.40;;;;;;5017836;28;20026;-71
2021/05/31 05:35:59;;;;;;;2.42;1.77;;;14.60;70.80;;;;;;5017432;28;20110;-71
2021/05/31 05:48:44;;;;;;;1.88;1.55;;;14.50;73.70;;;;;;5017952;28;20437;-71
2021/05/31 05:51:10;;;;;;;4.95;1.70;;;14.50;71.50;;;;;;5017131;28;20026;-70
2021/05/31 05:53:38;;;;;;;3.10;1.40;;;14.50;72.80;;;;;;5017227;28;20032;-70
2021/05/31 05:56:09;;;;;;;3.45;1.60;;;14.40;72.60;;;;;;5017071;28;20033;-70
2021/05/31 05:58:35;;;;;;;2.30;1.67;;;14.30;71.90;;;;;;5017154;28;20072;-70
2021/05/31 06:01:03;;;;;;;2.28;1.70;;;14.10;71.30;;;;;;5017058;28;20029;-71
2021/05/31 06:03:28;;;;;;;2.08;1.40;;;14.10;73.30;;;;;;5017063;28;20429;-70
2021/05/31 06:05:56;;;;;;;1.92;1.58;;;14.10;71.00;;;;;;5017183;28;20034;-70
2021/05/31 06:08:22;;;;;;;4.85;2.25;;;14.10;71.40;;;;;;5017009;28;20025;-70
2021/05/31 06:10:48;;;;;;;4.32;1.92;;;14.10;69.90;;;;;;5017108;28;20033;-70
2021/05/31 06:13:13;;;;;;;2.67;2.13;;;14.20;72.00;;;;;;5016982;28;20022;-70
2021/05/31 06:15:39;;;;;;;3.95;1.98;;;14.30;73.60;;;;;;5016823;28;20034;-70
2021/05/31 06:18:05;;;;;;;2.25;1.60;;;14.40;74.10;;;;;;5017253;28;20487;-70
2021/05/31 06:20:34;;;;;;;2.40;2.10;;;14.40;69.30;;;;;;5016721;28;20050;-70
2021/05/31 06:23:00;;;;;;;2.30;1.83;;;14.60;73.20;;;;;;5016861;28;20025;-70
2021/05/31 06:25:26;;;;;;;2.70;1.55;;;14.70;70.50;;;;;;5016982;28;20144;-70
2021/05/31 06:27:52;;;;;;;3.08;1.98;;;14.80;72.10;;;;;;5017095;28;20319;-70
2021/05/31 06:30:19;;;;;;;3.63;2.72;;;15.00;71.30;;;;;;5016789;28;20033;-70
2021/05/31 06:32:44;;;;;;;2.42;1.30;;;15.00;64.70;;;;;;5016774;28;20042;-70
2021/05/31 06:35:10;;;;;;;1.55;1.40;;;15.30;70.60;;;;;;5016739;28;20061;-70
2021/05/31 06:37:39;;;;;;;2.15;1.58;;;15.90;66.80;;;;;;5016676;28;20026;-71
2021/05/31 06:40:10;;;;;;;2.20;1.52;;;16.30;64.60;;;;;;5016677;28;20509;-70
2021/05/31 06:42:37;;;;;;;3.03;2.10;;;16.30;66.10;;;;;;5016984;28;20034;-70
2021/05/31 06:45:05;;;;;;;6.43;1.50;;;16.40;66.40;;;;;;5016923;28;20394;-70
2021/05/31 06:47:30;;;;;;;2.97;1.38;;;16.40;63.40;;;;;;5016624;28;20057;-70
2021/05/31 06:49:56;;;;;;;2.72;2.20;;;16.40;65.60;;;;;;5016865;28;20058;-70
2021/05/31 06:52:22;;;;;;;4.07;1.45;;;16.30;60.90;;;;;;5016892;28;20076;-70
2021/05/31 06:54:48;;;;;;;2.58;1.63;;;16.20;60.60;;;;;;5016833;28;20030;-71
2021/05/31 06:57:14;;;;;;;3.08;1.90;;;16.50;59.50;;;;;;5016575;28;20053;-71
2021/05/31 06:59:39;;;;;;;2.55;1.55;;;16.80;61.60;;;;;;5016811;28;20030;-70
2021/05/31 07:02:05;;;;;;;2.38;1.60;;;17.10;63.40;;;;;;5016779;28;20411;-71
2021/05/31 07:04:31;;;;;;;4.07;1.50;;;17.70;59.40;;;;;;5016685;28;20038;-71
2021/05/31 07:06:56;;;;;;;1.90;1.30;;;18.20;58.40;;;;;;5016757;28;20173;-71
2021/05/31 07:09:22;;;;;;;3.53;2.05;;;18.40;60.60;;;;;;5016714;28;20022;-71
2021/05/31 07:11:48;;;;;;;2.10;1.42;;;18.10;56.50;;;;;;5016689;28;20076;-71
2021/05/31 07:14:18;;;;;;;2.22;1.45;;;18.00;57.60;;;;;;5016466;28;20029;-71
2021/05/31 07:16:44;;;;;;;2.22;1.42;;;17.80;57.60;;;;;;5016714;28;20341;-71
2021/05/31 07:19:11;;;;;;;5.97;1.50;;;17.70;57.90;;;;;;5016140;28;20092;-71
2021/05/31 07:21:41;;;;;;;2.97;1.50;;;17.40;59.90;;;;;;5017439;28;20025;-71
2021/05/31 07:24:10;;;;;;;2.35;1.60;;;18.40;59.50;;;;;;5020088;28;20109;-71
2021/05/31 07:26:37;;;;;;;2.83;1.52;;;19.30;58.80;;;;;;5020036;28;20326;-71
2021/05/31 07:29:04;;;;;;;2.25;1.55;;;19.50;57.00;;;;;;5020151;28;20360;-71
2021/05/31 07:31:30;;;;;;;3.08;1.35;;;19.50;57.80;;;;;;5020044;28;20096;-71
2021/05/31 07:33:56;;;;;;;2.13;1.45;;;19.90;58.30;;;;;;5019765;28;20478;-71
2021/05/31 07:36:21;;;;;;;4.03;1.48;;;20.60;56.80;;;;;;5019607;28;20032;-71
2021/05/31 07:38:47;;;;;;;3.00;1.80;;;20.70;55.80;;;;;;5019916;28;20025;-71
2021/05/31 07:41:13;;;;;;;2.50;1.50;;;20.40;56.10;;;;;;5019884;28;20050;-71
2021/05/31 07:43:39;;;;;;;2.47;1.35;;;19.80;58.50;;;;;;5019862;28;20318;-71
2021/05/31 07:46:05;;;;;;;4.93;1.58;;;19.70;61.00;;;;;;5019305;28;20030;-71
2021/05/31 07:51:54;;;;;;;2.35;1.48;;;21.00;52.90;;;;;;5019682;28;20068;-71
2021/05/31 07:54:22;;;;;;;2.97;1.38;;;21.80;55.10;;;;;;5019339;28;20060;-71
2021/05/31 07:56:49;;;;;;;3.50;2.38;;;22.20;52.70;;;;;;5019582;28;20026;-71
2021/05/31 07:59:15;;;;;;;2.20;1.45;;;22.60;54.90;;;;;;5019566;28;20030;-71
2021/05/31 08:01:40;;;;;;;3.05;1.20;;;22.90;52.40;;;;;;5019508;28;20314;-71
2021/05/31 08:04:06;;;;;;;1.35;1.20;;;23.30;50.90;;;;;;5019526;28;20105;-70
2021/05/31 08:06:36;;;;;;;2.42;1.42;;;23.50;50.90;;;;;;5019261;28;20092;-71
2021/05/31 08:09:05;;;;;;;2.63;1.50;;;23.50;51.70;;;;;;5019086;28;20045;-71
2021/05/31 08:11:32;;;;;;;2.13;1.20;;;23.50;50.60;;;;;;5019000;28;20022;-71
2021/05/31 08:13:58;;;;;;;4.00;1.40;;;23.40;50.70;;;;;;5019253;28;20022;-69
2021/05/31 08:16:23;;;;;;;3.70;1.10;;;23.00;54.10;;;;;;5018871;28;20437;-69
2021/05/31 08:18:49;;;;;;;1.88;1.30;;;22.60;56.80;;;;;;5018929;28;20052;-70
2021/05/31 08:21:15;;;;;;;2.13;1.50;;;22.10;51.70;;;;;;5019115;28;20073;-69
2021/05/31 08:23:41;;;;;;;2.78;1.42;;;22.00;53.20;;;;;;5019159;28;20156;-70
2021/05/31 08:26:06;;;;;;;2.80;1.30;;;22.60;51.50;;;;;;5018931;28;20026;-69
2021/05/31 08:28:32;;;;;;;3.58;1.40;;;23.40;52.70;;;;;;5018717;28;20030;-70
2021/05/31 08:31:00;;;;;;;1.58;1.20;;;23.80;47.40;;;;;;5018643;28;20018;-69
2021/05/31 08:33:26;;;;;;;1.55;1.00;;;23.90;49.60;;;;;;5017785;28;20038;-70
2021/05/31 08:35:52;;;;;;;2.03;1.30;;;24.20;54.00;;;;;;5018520;28;20033;-70
2021/05/31 08:38:18;;;;;;;2.33;1.40;;;24.20;49.10;;;;;;5018838;28;20029;-70
2021/05/31 08:40:44;;;;;;;2.35;1.15;;;24.40;49.20;;;;;;5018758;28;20053;-70
2021/05/31 08:43:10;;;;;;;2.35;1.42;;;24.20;52.80;;;;;;5018415;28;20414;-70
2021/05/31 08:45:38;;;;;;;1.67;1.23;;;24.20;52.10;;;;;;5018578;28;20030;-70
2021/05/31 08:48:06;;;;;;;2.22;1.25;;;24.30;53.50;;;;;;5018313;28;20038;-70
2021/05/31 08:50:33;;;;;;;4.82;1.40;;;24.50;52.30;;;;;;5018628;28;20046;-70
2021/05/31 08:52:59;;;;;;;3.03;1.48;;;24.40;50.20;;;;;;5018583;28;20318;-70
2021/05/31 08:55:27;;;;;;;4.55;1.35;;;24.50;47.70;;;;;;5018452;28;20036;-70
2021/05/31 08:57:54;;;;;;;2.28;1.40;;;24.50;52.40;;;;;;5018128;28;20034;-70
2021/05/31 09:00:32;;;;;;;2.10;1.25;;;24.50;50.60;;;;;;5018431;28;20386;-70
2021/05/31 09:03:04;;;;;;;2.75;1.25;;;24.30;50.90;;;;;;5018031;28;20083;-70
2021/05/31 09:05:41;;;;;;;1.60;1.27;;;24.70;49.70;;;;;;5017963;28;20030;-70
2021/05/31 09:08:15;;;;;;;2.70;1.33;;;24.80;50.70;;;;;;5017976;28;20307;-70
2021/05/31 09:10:43;;;;;;;3.83;1.40;;;24.00;49.10;;;;;;5017969;28;20029;-70
2021/05/31 09:13:24;;;;;;;2.55;1.63;;;24.10;51.40;;;;;;5017912;28;20445;-70
2021/05/31 09:16:03;;;;;;;2.85;1.45;;;24.40;51.40;;;;;;5018298;28;20037;-70
2021/05/31 09:18:28;;;;;;;5.40;1.40;;;24.80;50.30;;;;;;5017853;28;20084;-70
2021/05/31 09:20:54;;;;;;;4.50;1.30;;;24.80;48.60;;;;;;5018083;28;20030;-70
2021/05/31 09:23:20;;;;;;;2.42;1.52;;;24.70;49.70;;;;;;5018065;28;20417;-70
2021/05/31 09:25:46;;;;;;;2.05;1.30;;;24.50;49.40;;;;;;5017852;28;20457;-70
2021/05/31 09:28:13;;;;;;;2.10;1.17;;;24.50;50.80;;;;;;5017926;28;20022;-70
2021/05/31 09:30:42;;;;;;;3.92;1.45;;;24.70;48.50;;;;;;5017789;28;20025;-70
2021/05/31 09:33:12;;;;;;;2.28;1.20;;;24.20;53.10;;;;;;5017540;28;20402;-70
2021/05/31 09:35:43;;;;;;;1.75;1.35;;;24.50;50.60;;;;;;5017793;28;20330;-70
2021/05/31 09:38:09;;;;;;;2.08;1.30;;;24.90;50.10;;;;;;5017710;28;20097;-70
2021/05/31 09:40:36;;;;;;;1.65;1.10;;;24.80;48.00;;;;;;5017407;28;20034;-69
2021/05/31 09:43:05;;;;;;;3.47;1.30;;;24.40;50.40;;;;;;5017372;28;20117;-70
2021/05/31 09:45:31;;;;;;;2.15;1.27;;;23.80;52.40;;;;;;5017254;28;20310;-70
2021/05/31 09:48:01;;;;;;;2.92;1.60;;;23.80;53.20;;;;;;5017576;28;20151;-70
2021/05/31 09:50:30;;;;;;;2.97;1.63;;;24.50;50.50;;;;;;5017512;28;20030;-70
2021/05/31 09:53:03;;;;;;;2.88;1.83;;;25.00;53.90;;;;;;5017227;28;20034;-70
2021/05/31 09:55:38;;;;;;;1.70;1.50;;;25.20;49.60;;;;;;5017429;28;20033;-70
2021/05/31 09:58:14;;;;;;;2.35;1.70;;;25.70;46.80;;;;;;5017523;28;20032;-70
2021/05/31 10:00:42;;;;;;;3.55;2.10;;;26.00;45.30;;;;;;5017469;28;20193;-70
2021/05/31 10:03:54;;;;;;;2.65;1.80;;;25.60;53.10;;;;;;5017111;28;20080;-69
2021/05/31 10:06:56;;;;;;;5.47;1.48;;;25.40;51.50;;;;;;5017634;28;20087;-69
2021/05/31 10:08:54;;;;;;;1.95;1.30;;;24.90;52.40;;;;;;5016567;28;20326;-69
2021/05/31 10:11:20;;;;;;;1.90;1.20;;;24.90;55.10;;;;;;5016913;28;20026;-69
2021/05/31 10:13:47;;;;;;;2.38;1.50;;;25.20;53.90;;;;;;5017395;28;20037;-70
2021/05/31 10:16:13;;;;;;;1.90;1.50;;;25.30;50.20;;;;;;5018359;28;20035;-70
2021/05/31 10:18:41;;;;;;;1.60;1.25;;;25.40;49.10;;;;;;5025377;28;20045;-69
2021/05/31 10:21:08;;;;;;;3.40;1.50;;;25.30;52.20;;;;;;5036896;28;20124;-69
2021/05/31 10:23:34;;;;;;;3.60;1.58;;;25.40;52.00;;;;;;5036649;28;20049;-69
2021/05/31 10:26:04;;;;;;;1.83;1.20;;;25.40;49.40;;;;;;5036737;28;20060;-69
2021/05/31 10:28:39;;;;;;;2.78;1.30;;;25.60;50.80;;;;;;5036878;28;20036;-69
2021/05/31 10:31:08;;;;;;;5.18;1.40;;;25.70;51.80;;;;;;5036581;28;20436;-69
2021/05/31 10:33:38;;;;;;;1.73;1.20;;;25.70;50.70;;;;;;5036516;28;20413;-69
2021/05/31 10:36:14;;;;;;;2.15;1.30;;;25.70;48.70;;;;;;5036403;28;20032;-69
2021/05/31 10:38:40;;;;;;;2.03;1.38;;;25.70;52.40;;;;;;5036796;28;20325;-70
2021/05/31 10:41:23;;;;;;;2.05;1.40;;;26.00;48.80;;;;;;5036391;28;20036;-70
2021/05/31 10:43:50;;;;;;;4.72;1.50;;;25.30;51.20;;;;;;5036720;28;20100;-69
2021/05/31 10:46:21;;;;;;;2.45;1.30;;;24.10;50.70;;;;;;5036185;28;20037;-69
2021/05/31 10:48:51;;;;;;;2.55;1.90;;;24.00;53.30;;;;;;5036635;28;20104;-69
2021/05/31 10:51:24;;;;;;;5.80;1.60;;;23.90;57.00;;;;;;5036168;28;20033;-69
2021/05/31 10:53:50;;;;;;;1.70;1.42;;;23.40;53.20;;;;;;5036656;28;20028;-70
2021/05/31 10:56:16;;;;;;;2.67;1.88;;;23.00;54.30;;;;;;5036931;28;20025;-69
2021/05/31 10:58:47;;;;;;;5.82;2.13;;;22.40;54.60;;;;;;5040227;28;20057;-69
2021/05/31 11:01:37;;;;;;;2.78;1.80;;;21.70;56.00;;;;;;5040459;28;20105;-69
2021/05/31 11:04:14;;;;;;;2.47;1.55;;;21.80;55.80;;;;;;5037303;28;20034;-70
2021/05/31 11:06:42;;;;;;;3.25;1.88;;;22.10;60.10;;;;;;5040294;28;20108;-69
2021/05/31 11:09:23;;;;;;;2.38;1.80;;;22.60;53.70;;;;;;5040074;28;20026;-69
2021/05/31 11:11:51;;;;;;;6.10;1.88;;;23.40;55.60;;;;;;5040279;28;20326;-70
2021/05/31 11:14:29;;;;;;;2.20;1.70;;;23.30;55.60;;;;;;5039872;28;20026;-69
2021/05/31 11:16:57;;;;;;;2.20;1.63;;;23.00;58.20;;;;;;5039892;28;20083;-71
2021/05/31 11:19:44;;;;;;;2.55;1.83;;;23.20;57.50;;;;;;5039633;28;20049;-69
2021/05/31 11:22:14;;;;;;;3.00;1.70;;;23.70;56.50;;;;;;5039735;28;20100;-71
2021/05/31 11:24:41;;;;;;;3.40;2.00;;;24.00;52.70;;;;;;5039878;28;20034;-69
2021/05/31 11:27:09;;;;;;;3.13;2.03;;;24.10;52.40;;;;;;5039622;28;20022;-70
2021/05/31 11:29:36;;;;;;;5.47;1.98;;;23.70;51.20;;;;;;5039620;28;20029;-71
2021/05/31 11:32:03;;;;;;;3.25;2.13;;;22.90;53.70;;;;;;5039568;28;20025;-71
2021/05/31 11:34:29;;;;;;;3.58;1.67;;;22.30;54.60;;;;;;5039513;28;20104;-71
2021/05/31 11:36:58;;;;;;;2.53;1.90;;;21.80;61.60;;;;;;5039799;28;20143;-69
2021/05/31 11:39:24;;;;;;;6.18;2.88;;;21.40;59.60;;;;;;5039420;28;20029;-69
2021/05/31 11:41:53;;;;;;;3.15;2.25;;;21.20;56.90;;;;;;5039347;28;20021;-69
2021/05/31 11:44:30;;;;;;;3.42;2.08;;;20.80;58.80;;;;;;5039589;28;20053;-69
2021/05/31 11:47:03;;;;;;;3.85;2.63;;;20.60;60.10;;;;;;5039547;28;20064;-69
2021/05/31 11:49:36;;;;;;;3.47;2.00;;;20.90;59.70;;;;;;5039518;28;20083;-69
2021/05/31 11:52:03;;;;;;;3.45;2.00;;;20.90;61.00;;;;;;5039208;28;20033;-69
2021/05/31 11:57:51;;;;;;;4.15;2.20;;;20.90;57.50;;;;;;5039395;28;20156;-69
2021/05/31 12:00:29;;;;;;;2.45;1.98;;;20.60;59.00;;;;;;5039077;28;20017;-69
2021/05/31 12:02:56;;;;;;;3.85;2.60;;;20.40;58.70;;;;;;5038929;28;20029;-70
2021/05/31 12:05:38;;;;;;;2.30;2.10;;;20.90;63.10;;;;;;5037925;28;20033;-70
2021/05/31 12:08:10;;;;;;;4.10;2.13;;;21.20;59.60;;;;;;5038905;28;20033;-70
2021/05/31 12:10:40;;;;;;;3.45;2.22;;;21.00;60.90;;;;;;5038862;28;20447;-70
2021/05/31 12:13:06;;;;;;;4.38;2.40;;;20.80;59.80;;;;;;5039135;28;20029;-70
2021/05/31 12:15:34;;;;;;;3.83;2.38;;;20.50;62.80;;;;;;5039069;28;20101;-70
2021/05/31 12:18:13;;;;;;;3.20;2.75;;;20.20;59.90;;;;;;5038739;28;20428;-69
2021/05/31 12:20:40;;;;;;;3.13;2.72;;;20.00;61.70;;;;;;5038683;28;20075;-69
2021/05/31 12:23:15;;;;;;;3.00;2.47;;;19.90;60.30;;;;;;5038629;28;20410;-69
2021/05/31 12:25:41;;;;;;;4.05;2.72;;;19.70;62.40;;;;;;5038461;28;20044;-69
2021/05/31 12:28:07;;;;;;;2.70;2.25;;;19.40;61.40;;;;;;5038538;28;20025;-69
2021/05/31 12:30:33;;;;;;;5.75;2.65;;;19.40;67.60;;;;;;5038480;28;20021;-69
2021/05/31 12:33:07;;;;;;;5.57;3.05;;;19.70;63.30;;;;;;5038750;28;20022;-69
2021/05/31 12:35:33;;;;;;;3.97;2.90;;;20.20;63.10;;;;;;5038724;28;20353;-69
2021/05/31 12:37:59;;;;;;;3.28;2.63;;;20.50;59.10;;;;;;5038667;28;20033;-69
2021/05/31 12:40:25;;;;;;;3.80;2.83;;;20.60;60.60;;;;;;5038258;28;20481;-69
2021/05/31 12:42:52;;;;;;;4.93;3.22;;;20.40;61.40;;;;;;5038292;28;20056;-69
2021/05/31 12:45:19;;;;;;;3.92;3.20;;;20.30;60.90;;;;;;5038332;28;20033;-69
2021/05/31 12:47:49;;;;;;;3.47;3.10;;;20.20;62.40;;;;;;5038190;28;20030;-70
2021/05/31 12:50:33;;;;;;;3.85;3.00;;;20.20;62.00;;;;;;5038415;28;20059;-70
2021/05/31 12:53:07;;;;;;;4.05;2.92;;;20.00;64.50;;;;;;5038382;28;20030;-70
2021/05/31 12:55:35;;;;;;;3.38;2.72;;;19.80;63.50;;;;;;5038283;28;20079;-70
2021/05/31 12:58:13;;;;;;;3.55;3.10;;;19.80;63.30;;;;;;5038307;28;20329;-70
2021/05/31 13:00:39;;;;;;;4.30;2.95;;;20.00;62.10;;;;;;5037891;28;20041;-70
2021/05/31 13:03:05;;;;;;;2.85;2.45;;;20.20;62.60;;;;;;5038161;28;20349;-70
2021/05/31 13:05:35;;;;;;;3.75;2.90;;;20.40;63.10;;;;;;5037997;28;20113;-70
2021/05/31 13:08:10;;;;;;;7.28;3.00;;;21.00;64.80;;;;;;5037754;28;20022;-70
2021/05/31 13:10:41;;;;;;;4.38;2.50;;;21.50;63.20;;;;;;5037766;28;20034;-70
2021/05/31 13:13:09;;;;;;;3.42;2.63;;;21.90;59.00;;;;;;5037576;28;20025;-70
2021/05/31 13:15:51;;;;;;;3.67;2.50;;;22.10;59.50;;;;;;5037846;28;20033;-70
2021/05/31 13:18:23;;;;;;;4.07;2.15;;;22.10;61.70;;;;;;5037296;28;20484;-70